sensor_id;sensor_type;location;lat;lon;timestamp;temperature;humidity
46608;DHT22;32330;51.936;7.184;2022-07-29T00:00:58;18.60;83.40
46608;DHT22;32330;51.936;7.184;2022-07-29T00:03:23;18.50;83.60
46608;DHT22;32330;51.936;7.184;2022-07-29T00:05:49;18.50;83.60
46608;DHT22;32330;51.936;7.184;2022-07-29T00:08:14;18.50;83.50
46608;DHT22;32330;51.936;7.184;2022-07-29T00:10:41;18.50;83.90
46608;DHT22;32330;51.936;7.184;2022-07-29T00:13:07;18.50;83.80
46608;DHT22;32330;51.936;7.184;2022-07-29T00:15:32;18.50;83.70
46608;DHT22;32330;51.936;7.184;2022-07-29T00:17:58;18.50;84.00
46608;DHT22;32330;51.936;7.184;2022-07-29T00:20:23;18.40;83.90
46608;DHT22;32330;51.936;7.184;2022-07-29T00:22:49;18.40;83.80
46608;DHT22;32330;51.936;7.184;2022-07-29T00:25:15;18.40;84.00
46608;DHT22;32330;51.936;7.184;2022-07-29T00:27:40;18.40;83.90
46608;DHT22;32330;51.936;7.184;2022-07-29T00:30:07;18.30;84.20
46608;DHT22;32330;51.936;7.184;2022-07-29T00:32:33;18.20;84.30
46608;DHT22;32330;51.936;7.184;2022-07-29T00:34:59;18.20;84.30
46608;DHT22;32330;51.936;7.184;2022-07-29T00:37:43;18.30;84.60
46608;DHT22;32330;51.936;7.184;2022-07-29T00:40:09;18.20;84.90
46608;DHT22;32330;51.936;7.184;2022-07-29T00:43:01;18.20;84.80
46608;DHT22;32330;51.936;7.184;2022-07-29T00:45:27;18.20;85.20
46608;DHT22;32330;51.936;7.184;2022-07-29T00:47:52;18.20;85.00
46608;DHT22;32330;51.936;7.184;2022-07-29T00:50:18;18.20;85.30
46608;DHT22;32330;51.936;7.184;2022-07-29T00:52:44;18.10;85.00
46608;DHT22;32330;51.936;7.184;2022-07-29T00:55:12;18.10;85.10
46608;DHT22;32330;51.936;7.184;2022-07-29T00:57:38;18.10;85.30
46608;DHT22;32330;51.936;7.184;2022-07-29T01:00:07;18.10;85.40
46608;DHT22;32330;51.936;7.184;2022-07-29T01:02:33;18.00;85.40
46608;DHT22;32330;51.936;7.184;2022-07-29T01:05:00;18.00;85.60
46608;DHT22;32330;51.936;7.184;2022-07-29T01:07:26;18.00;85.60
46608;DHT22;32330;51.936;7.184;2022-07-29T01:09:53;18.00;85.50
46608;DHT22;32330;51.936;7.184;2022-07-29T01:12:27;17.90;85.80
46608;DHT22;32330;51.936;7.184;2022-07-29T01:14:55;17.90;85.90
46608;DHT22;32330;51.936;7.184;2022-07-29T01:20:03;17.90;86.00
46608;DHT22;32330;51.936;7.184;2022-07-29T01:28:32;17.90;86.70
46608;DHT22;32330;51.936;7.184;2022-07-29T01:31:02;17.90;86.30
46608;DHT22;32330;51.936;7.184;2022-07-29T01:33:29;17.80;86.70
46608;DHT22;32330;51.936;7.184;2022-07-29T01:36:19;17.80;86.50
46608;DHT22;32330;51.936;7.184;2022-07-29T01:39:09;17.80;86.30
46608;DHT22;32330;51.936;7.184;2022-07-29T01:41:38;17.80;86.60
46608;DHT22;32330;51.936;7.184;2022-07-29T01:44:19;17.80;86.60
46608;DHT22;32330;51.936;7.184;2022-07-29T01:46:57;17.80;86.90
46608;DHT22;32330;51.936;7.184;2022-07-29T01:49:33;17.80;86.60
46608;DHT22;32330;51.936;7.184;2022-07-29T01:52:05;17.80;87.10
46608;DHT22;32330;51.936;7.184;2022-07-29T01:54:43;17.70;87.20
46608;DHT22;32330;51.936;7.184;2022-07-29T01:57:14;17.70;87.10
46608;DHT22;32330;51.936;7.184;2022-07-29T01:59:41;17.60;87.30
46608;DHT22;32330;51.936;7.184;2022-07-29T02:02:10;17.60;87.60
46608;DHT22;32330;51.936;7.184;2022-07-29T02:04:37;17.60;87.90
46608;DHT22;32330;51.936;7.184;2022-07-29T02:07:06;17.50;87.60
46608;DHT22;32330;51.936;7.184;2022-07-29T02:09:35;17.50;88.20
46608;DHT22;32330;51.936;7.184;2022-07-29T02:12:02;17.40;87.80
46608;DHT22;32330;51.936;7.184;2022-07-29T02:14:31;17.40;88.20
46608;DHT22;32330;51.936;7.184;2022-07-29T02:17:00;17.40;88.10
46608;DHT22;32330;51.936;7.184;2022-07-29T02:19:27;17.40;88.40
46608;DHT22;32330;51.936;7.184;2022-07-29T02:21:55;17.40;88.10
46608;DHT22;32330;51.936;7.184;2022-07-29T02:24:23;17.40;88.70
46608;DHT22;32330;51.936;7.184;2022-07-29T02:26:50;17.30;88.60
46608;DHT22;32330;51.936;7.184;2022-07-29T02:29:20;17.30;88.70
46608;DHT22;32330;51.936;7.184;2022-07-29T02:31:49;17.30;89.10
46608;DHT22;32330;51.936;7.184;2022-07-29T02:34:15;17.30;89.50
46608;DHT22;32330;51.936;7.184;2022-07-29T02:36:43;17.20;89.00
46608;DHT22;32330;51.936;7.184;2022-07-29T02:39:09;17.20;89.30
46608;DHT22;32330;51.936;7.184;2022-07-29T02:41:50;17.20;89.10
46608;DHT22;32330;51.936;7.184;2022-07-29T02:44:21;17.20;89.60
46608;DHT22;32330;51.936;7.184;2022-07-29T02:47:02;17.20;89.90
46608;DHT22;32330;51.936;7.184;2022-07-29T02:49:48;17.20;89.90
46608;DHT22;32330;51.936;7.184;2022-07-29T02:52:37;17.10;89.60
46608;DHT22;32330;51.936;7.184;2022-07-29T02:57:58;17.10;90.10
46608;DHT22;32330;51.936;7.184;2022-07-29T03:00:28;17.10;90.00
46608;DHT22;32330;51.936;7.184;2022-07-29T03:02:56;17.10;90.20
46608;DHT22;32330;51.936;7.184;2022-07-29T03:05:24;17.10;90.30
46608;DHT22;32330;51.936;7.184;2022-07-29T03:07:54;17.10;90.20
46608;DHT22;32330;51.936;7.184;2022-07-29T03:10:21;17.00;90.20
46608;DHT22;32330;51.936;7.184;2022-07-29T03:12:47;17.00;90.30
46608;DHT22;32330;51.936;7.184;2022-07-29T03:15:14;17.00;90.40
46608;DHT22;32330;51.936;7.184;2022-07-29T03:17:40;17.00;90.40
46608;DHT22;32330;51.936;7.184;2022-07-29T03:20:07;17.00;90.40
46608;DHT22;32330;51.936;7.184;2022-07-29T03:22:37;16.90;90.40
46608;DHT22;32330;51.936;7.184;2022-07-29T03:25:08;16.90;90.50
46608;DHT22;32330;51.936;7.184;2022-07-29T03:27:34;16.90;90.40
46608;DHT22;32330;51.936;7.184;2022-07-29T03:29:59;16.90;90.70
46608;DHT22;32330;51.936;7.184;2022-07-29T03:32:25;16.90;90.70
46608;DHT22;32330;51.936;7.184;2022-07-29T03:34:51;16.90;90.90
46608;DHT22;32330;51.936;7.184;2022-07-29T03:37:16;16.90;90.90
46608;DHT22;32330;51.936;7.184;2022-07-29T03:39:43;16.90;90.80
46608;DHT22;32330;51.936;7.184;2022-07-29T03:42:12;16.90;90.60
46608;DHT22;32330;51.936;7.184;2022-07-29T03:44:41;16.90;91.10
46608;DHT22;32330;51.936;7.184;2022-07-29T03:47:08;16.80;90.90
46608;DHT22;32330;51.936;7.184;2022-07-29T03:49:36;16.80;91.30
46608;DHT22;32330;51.936;7.184;2022-07-29T03:52:02;16.80;90.90
46608;DHT22;32330;51.936;7.184;2022-07-29T03:54:28;16.80;91.10
46608;DHT22;32330;51.936;7.184;2022-07-29T03:56:54;16.80;91.00
46608;DHT22;32330;51.936;7.184;2022-07-29T03:59:23;16.80;91.20
46608;DHT22;32330;51.936;7.184;2022-07-29T04:01:50;16.80;91.20
46608;DHT22;32330;51.936;7.184;2022-07-29T04:04:16;16.80;91.30
46608;DHT22;32330;51.936;7.184;2022-07-29T04:06:43;16.80;91.30
46608;DHT22;32330;51.936;7.184;2022-07-29T04:09:10;16.80;91.40
46608;DHT22;32330;51.936;7.184;2022-07-29T04:11:37;16.80;91.50
46608;DHT22;32330;51.936;7.184;2022-07-29T04:14:03;16.80;91.30
46608;DHT22;32330;51.936;7.184;2022-07-29T04:16:29;16.80;91.50
46608;DHT22;32330;51.936;7.184;2022-07-29T04:18:54;16.80;91.60
46608;DHT22;32330;51.936;7.184;2022-07-29T04:21:20;16.80;91.40
46608;DHT22;32330;51.936;7.184;2022-07-29T04:23:45;16.80;91.30
46608;DHT22;32330;51.936;7.184;2022-07-29T04:26:15;16.80;91.90
46608;DHT22;32330;51.936;7.184;2022-07-29T04:28:41;16.80;92.10
46608;DHT22;32330;51.936;7.184;2022-07-29T04:31:08;16.80;92.30
46608;DHT22;32330;51.936;7.184;2022-07-29T04:33:33;16.80;92.50
46608;DHT22;32330;51.936;7.184;2022-07-29T04:35:59;16.70;92.30
46608;DHT22;32330;51.936;7.184;2022-07-29T04:38:25;16.80;92.80
46608;DHT22;32330;51.936;7.184;2022-07-29T04:40:50;16.70;92.70
46608;DHT22;32330;51.936;7.184;2022-07-29T04:43:16;16.60;92.90
46608;DHT22;32330;51.936;7.184;2022-07-29T04:45:41;16.70;92.70
46608;DHT22;32330;51.936;7.184;2022-07-29T04:48:07;16.70;92.70
46608;DHT22;32330;51.936;7.184;2022-07-29T04:50:32;16.70;92.90
46608;DHT22;32330;51.936;7.184;2022-07-29T04:52:58;16.70;93.00
46608;DHT22;32330;51.936;7.184;2022-07-29T04:55:24;16.70;93.20
46608;DHT22;32330;51.936;7.184;2022-07-29T04:57:50;16.70;93.20
46608;DHT22;32330;51.936;7.184;2022-07-29T05:00:16;16.70;93.10
46608;DHT22;32330;51.936;7.184;2022-07-29T05:02:42;16.80;93.30
46608;DHT22;32330;51.936;7.184;2022-07-29T05:05:08;16.80;93.40
46608;DHT22;32330;51.936;7.184;2022-07-29T05:07:33;16.70;93.40
46608;DHT22;32330;51.936;7.184;2022-07-29T05:09:59;16.70;93.60
46608;DHT22;32330;51.936;7.184;2022-07-29T05:12:25;16.70;93.50
46608;DHT22;32330;51.936;7.184;2022-07-29T05:14:51;16.70;94.00
46608;DHT22;32330;51.936;7.184;2022-07-29T05:17:17;16.70;94.00
46608;DHT22;32330;51.936;7.184;2022-07-29T05:19:42;16.70;94.30
46608;DHT22;32330;51.936;7.184;2022-07-29T05:22:08;16.70;94.40
46608;DHT22;32330;51.936;7.184;2022-07-29T05:24:33;16.70;94.40
46608;DHT22;32330;51.936;7.184;2022-07-29T05:26:59;16.60;95.00
46608;DHT22;32330;51.936;7.184;2022-07-29T05:29:24;16.60;96.50
46608;DHT22;32330;51.936;7.184;2022-07-29T05:31:50;16.50;30.70
46608;DHT22;32330;51.936;7.184;2022-07-29T05:34:18;16.30;99.90
46608;DHT22;32330;51.936;7.184;2022-07-29T05:36:44;16.30;99.90
46608;DHT22;32330;51.936;7.184;2022-07-29T05:39:10;16.30;99.90
46608;DHT22;32330;51.936;7.184;2022-07-29T05:41:36;16.30;99.90
46608;DHT22;32330;51.936;7.184;2022-07-29T05:44:01;16.20;99.90
46608;DHT22;32330;51.936;7.184;2022-07-29T05:46:27;16.30;99.90
46608;DHT22;32330;51.936;7.184;2022-07-29T05:48:53;16.20;99.90
46608;DHT22;32330;51.936;7.184;2022-07-29T05:51:19;16.00;99.90
46608;DHT22;32330;51.936;7.184;2022-07-29T05:53:44;15.90;1.00
46608;DHT22;32330;51.936;7.184;2022-07-29T05:56:10;15.80;1.00
46608;DHT22;32330;51.936;7.184;2022-07-29T05:58:35;15.90;1.00
46608;DHT22;32330;51.936;7.184;2022-07-29T06:01:01;15.90;1.00
46608;DHT22;32330;51.936;7.184;2022-07-29T06:03:27;15.90;1.00
46608;DHT22;32330;51.936;7.184;2022-07-29T06:05:53;15.90;1.00
46608;DHT22;32330;51.936;7.184;2022-07-29T06:08:18;15.90;1.00
46608;DHT22;32330;51.936;7.184;2022-07-29T06:10:44;15.80;1.00
46608;DHT22;32330;51.936;7.184;2022-07-29T06:13:11;15.80;1.00
46608;DHT22;32330;51.936;7.184;2022-07-29T06:15:37;15.90;1.00
46608;DHT22;32330;51.936;7.184;2022-07-29T06:18:02;15.80;1.00
46608;DHT22;32330;51.936;7.184;2022-07-29T06:20:29;15.90;1.00
46608;DHT22;32330;51.936;7.184;2022-07-29T06:22:56;15.90;1.00
46608;DHT22;32330;51.936;7.184;2022-07-29T06:25:21;15.90;1.00
46608;DHT22;32330;51.936;7.184;2022-07-29T06:27:47;16.00;1.00
46608;DHT22;32330;51.936;7.184;2022-07-29T06:30:13;16.00;1.00
46608;DHT22;32330;51.936;7.184;2022-07-29T06:32:39;16.10;1.00
46608;DHT22;32330;51.936;7.184;2022-07-29T06:35:05;16.20;1.00
46608;DHT22;32330;51.936;7.184;2022-07-29T06:37:31;16.20;1.00
46608;DHT22;32330;51.936;7.184;2022-07-29T06:39:56;16.30;1.00
46608;DHT22;32330;51.936;7.184;2022-07-29T06:42:44;16.30;1.00
46608;DHT22;32330;51.936;7.184;2022-07-29T06:45:10;16.40;1.00
46608;DHT22;32330;51.936;7.184;2022-07-29T06:47:36;16.40;1.00
46608;DHT22;32330;51.936;7.184;2022-07-29T06:50:03;16.30;1.00
46608;DHT22;32330;51.936;7.184;2022-07-29T06:52:29;16.40;1.00
46608;DHT22;32330;51.936;7.184;2022-07-29T06:54:54;16.50;1.00
46608;DHT22;32330;51.936;7.184;2022-07-29T06:57:21;16.60;1.00
46608;DHT22;32330;51.936;7.184;2022-07-29T06:59:47;16.60;1.00
46608;DHT22;32330;51.936;7.184;2022-07-29T07:02:12;16.50;1.00
46608;DHT22;32330;51.936;7.184;2022-07-29T07:04:38;16.40;1.00
46608;DHT22;32330;51.936;7.184;2022-07-29T07:07:04;16.40;1.00
46608;DHT22;32330;51.936;7.184;2022-07-29T07:09:29;16.40;1.00
46608;DHT22;32330;51.936;7.184;2022-07-29T07:11:55;16.50;1.00
46608;DHT22;32330;51.936;7.184;2022-07-29T07:14:20;16.40;1.00
46608;DHT22;32330;51.936;7.184;2022-07-29T07:16:46;16.10;1.00
46608;DHT22;32330;51.936;7.184;2022-07-29T07:19:11;16.10;1.00
46608;DHT22;32330;51.936;7.184;2022-07-29T07:21:37;16.00;5.10
46608;DHT22;32330;51.936;7.184;2022-07-29T07:24:03;16.20;8.50
46608;DHT22;32330;51.936;7.184;2022-07-29T07:26:28;16.30;10.40
46608;DHT22;32330;51.936;7.184;2022-07-29T07:28:54;16.40;1.00
46608;DHT22;32330;51.936;7.184;2022-07-29T07:31:20;16.40;1.00
46608;DHT22;32330;51.936;7.184;2022-07-29T07:33:45;16.30;1.00
46608;DHT22;32330;51.936;7.184;2022-07-29T07:36:11;16.30;1.00
46608;DHT22;32330;51.936;7.184;2022-07-29T07:38:36;16.40;1.00
46608;DHT22;32330;51.936;7.184;2022-07-29T07:41:02;16.50;1.00
46608;DHT22;32330;51.936;7.184;2022-07-29T07:43:28;16.50;1.00
46608;DHT22;32330;51.936;7.184;2022-07-29T07:45:54;16.50;1.00
46608;DHT22;32330;51.936;7.184;2022-07-29T07:48:19;16.40;1.00
46608;DHT22;32330;51.936;7.184;2022-07-29T07:50:45;16.40;1.00
46608;DHT22;32330;51.936;7.184;2022-07-29T07:53:11;16.50;1.00
46608;DHT22;32330;51.936;7.184;2022-07-29T07:55:41;16.40;1.00
46608;DHT22;32330;51.936;7.184;2022-07-29T07:58:07;16.50;1.00
46608;DHT22;32330;51.936;7.184;2022-07-29T08:00:32;16.60;1.00
46608;DHT22;32330;51.936;7.184;2022-07-29T08:02:58;16.70;1.00
46608;DHT22;32330;51.936;7.184;2022-07-29T08:05:23;16.70;99.90
46608;DHT22;32330;51.936;7.184;2022-07-29T08:07:49;16.70;99.90
46608;DHT22;32330;51.936;7.184;2022-07-29T08:10:16;16.80;1.00
46608;DHT22;32330;51.936;7.184;2022-07-29T08:13:03;16.90;1.00
46608;DHT22;32330;51.936;7.184;2022-07-29T08:15:28;17.00;1.00
46608;DHT22;32330;51.936;7.184;2022-07-29T08:17:54;17.00;1.00
46608;DHT22;32330;51.936;7.184;2022-07-29T08:20:19;17.00;99.90
46608;DHT22;32330;51.936;7.184;2022-07-29T08:22:48;17.00;99.90
46608;DHT22;32330;51.936;7.184;2022-07-29T08:25:14;17.10;99.90
46608;DHT22;32330;51.936;7.184;2022-07-29T08:27:39;17.10;1.00
46608;DHT22;32330;51.936;7.184;2022-07-29T08:30:05;17.10;99.90
46608;DHT22;32330;51.936;7.184;2022-07-29T08:32:31;17.10;99.90
46608;DHT22;32330;51.936;7.184;2022-07-29T08:34:56;17.20;1.00
46608;DHT22;32330;51.936;7.184;2022-07-29T08:37:22;17.20;1.00
46608;DHT22;32330;51.936;7.184;2022-07-29T08:39:48;17.20;1.00
46608;DHT22;32330;51.936;7.184;2022-07-29T08:42:13;17.20;99.90
46608;DHT22;32330;51.936;7.184;2022-07-29T08:44:39;17.20;99.90
46608;DHT22;32330;51.936;7.184;2022-07-29T08:47:05;17.30;1.00
46608;DHT22;32330;51.936;7.184;2022-07-29T08:49:33;17.30;1.00
46608;DHT22;32330;51.936;7.184;2022-07-29T08:52:00;17.30;1.00
46608;DHT22;32330;51.936;7.184;2022-07-29T08:54:25;17.30;1.00
46608;DHT22;32330;51.936;7.184;2022-07-29T08:56:53;17.30;1.00
46608;DHT22;32330;51.936;7.184;2022-07-29T08:59:20;17.30;1.00
46608;DHT22;32330;51.936;7.184;2022-07-29T09:01:48;17.30;1.00
46608;DHT22;32330;51.936;7.184;2022-07-29T09:04:17;17.40;1.00
46608;DHT22;32330;51.936;7.184;2022-07-29T09:06:45;17.40;1.00
46608;DHT22;32330;51.936;7.184;2022-07-29T09:09:11;17.50;1.00
46608;DHT22;32330;51.936;7.184;2022-07-29T09:11:39;17.50;1.00
46608;DHT22;32330;51.936;7.184;2022-07-29T09:14:05;17.40;1.00
46608;DHT22;32330;51.936;7.184;2022-07-29T09:16:53;17.50;1.00
46608;DHT22;32330;51.936;7.184;2022-07-29T09:19:30;17.50;1.00
46608;DHT22;32330;51.936;7.184;2022-07-29T09:21:58;17.50;1.00
46608;DHT22;32330;51.936;7.184;2022-07-29T09:24:25;17.50;1.00
46608;DHT22;32330;51.936;7.184;2022-07-29T09:26:51;17.40;1.00
46608;DHT22;32330;51.936;7.184;2022-07-29T09:29:22;17.40;1.00
46608;DHT22;32330;51.936;7.184;2022-07-29T09:31:50;17.30;1.00
46608;DHT22;32330;51.936;7.184;2022-07-29T09:34:21;17.40;1.00
46608;DHT22;32330;51.936;7.184;2022-07-29T09:36:47;17.30;1.00
46608;DHT22;32330;51.936;7.184;2022-07-29T09:39:15;17.30;1.00
46608;DHT22;32330;51.936;7.184;2022-07-29T09:41:49;17.30;1.00
46608;DHT22;32330;51.936;7.184;2022-07-29T09:44:15;17.40;1.00
46608;DHT22;32330;51.936;7.184;2022-07-29T09:49:18;17.30;1.00
46608;DHT22;32330;51.936;7.184;2022-07-29T09:51:43;17.30;1.00
46608;DHT22;32330;51.936;7.184;2022-07-29T09:54:26;17.30;1.00
46608;DHT22;32330;51.936;7.184;2022-07-29T09:56:53;17.20;1.00
46608;DHT22;32330;51.936;7.184;2022-07-29T09:59:19;17.10;1.00
46608;DHT22;32330;51.936;7.184;2022-07-29T10:01:51;17.10;1.00
46608;DHT22;32330;51.936;7.184;2022-07-29T10:04:18;17.00;1.00
46608;DHT22;32330;51.936;7.184;2022-07-29T10:07:00;17.00;1.00
46608;DHT22;32330;51.936;7.184;2022-07-29T10:09:26;17.10;1.00
46608;DHT22;32330;51.936;7.184;2022-07-29T10:12:13;17.30;1.00
46608;DHT22;32330;51.936;7.184;2022-07-29T10:14:42;17.30;1.00
46608;DHT22;32330;51.936;7.184;2022-07-29T10:17:09;17.40;1.00
46608;DHT22;32330;51.936;7.184;2022-07-29T10:19:36;17.50;1.00
46608;DHT22;32330;51.936;7.184;2022-07-29T10:22:05;17.60;1.00
46608;DHT22;32330;51.936;7.184;2022-07-29T10:24:31;17.60;1.00
46608;DHT22;32330;51.936;7.184;2022-07-29T10:26:59;17.50;1.00
46608;DHT22;32330;51.936;7.184;2022-07-29T10:29:25;17.50;1.00
46608;DHT22;32330;51.936;7.184;2022-07-29T10:37:08;17.70;1.00
46608;DHT22;32330;51.936;7.184;2022-07-29T10:42:13;17.80;1.00
46608;DHT22;32330;51.936;7.184;2022-07-29T10:44:41;17.70;1.00
46608;DHT22;32330;51.936;7.184;2022-07-29T10:47:08;17.80;1.00
46608;DHT22;32330;51.936;7.184;2022-07-29T10:49:58;17.80;1.00
46608;DHT22;32330;51.936;7.184;2022-07-29T10:52:24;17.90;1.00
46608;DHT22;32330;51.936;7.184;2022-07-29T10:54:53;17.90;1.00
46608;DHT22;32330;51.936;7.184;2022-07-29T10:57:22;18.00;1.00
46608;DHT22;32330;51.936;7.184;2022-07-29T11:05:06;18.00;1.00
46608;DHT22;32330;51.936;7.184;2022-07-29T11:07:34;18.10;1.00
46608;DHT22;32330;51.936;7.184;2022-07-29T11:15:05;18.00;1.00
46608;DHT22;32330;51.936;7.184;2022-07-29T11:20:38;18.20;1.00
46608;DHT22;32330;51.936;7.184;2022-07-29T11:23:26;18.20;1.00
46608;DHT22;32330;51.936;7.184;2022-07-29T11:31:42;18.50;99.90
46608;DHT22;32330;51.936;7.184;2022-07-29T11:39:29;18.90;99.90
46608;DHT22;32330;51.936;7.184;2022-07-29T11:47:25;19.30;99.90
46608;DHT22;32330;51.936;7.184;2022-07-29T11:49:52;19.20;99.90
46608;DHT22;32330;51.936;7.184;2022-07-29T11:52:19;19.20;99.90
46608;DHT22;32330;51.936;7.184;2022-07-29T11:54:47;19.20;99.90
46608;DHT22;32330;51.936;7.184;2022-07-29T11:57:14;19.20;99.90
46608;DHT22;32330;51.936;7.184;2022-07-29T11:59:43;19.30;99.90
46608;DHT22;32330;51.936;7.184;2022-07-29T12:02:09;19.30;99.90
46608;DHT22;32330;51.936;7.184;2022-07-29T12:04:55;19.50;99.90
46608;DHT22;32330;51.936;7.184;2022-07-29T12:07:29;19.60;99.90
46608;DHT22;32330;51.936;7.184;2022-07-29T12:09:54;19.70;99.90
46608;DHT22;32330;51.936;7.184;2022-07-29T12:12:21;19.80;99.90
46608;DHT22;32330;51.936;7.184;2022-07-29T12:14:46;19.90;99.90
46608;DHT22;32330;51.936;7.184;2022-07-29T12:19:53;20.00;99.90
46608;DHT22;32330;51.936;7.184;2022-07-29T12:22:29;20.20;52.40
46608;DHT22;32330;51.936;7.184;2022-07-29T12:24:55;20.40;72.90
46608;DHT22;32330;51.936;7.184;2022-07-29T12:27:22;20.50;1.00
46608;DHT22;32330;51.936;7.184;2022-07-29T12:32:23;20.80;99.90
46608;DHT22;32330;51.936;7.184;2022-07-29T12:34:49;20.80;99.90
46608;DHT22;32330;51.936;7.184;2022-07-29T12:37:16;21.00;99.90
46608;DHT22;32330;51.936;7.184;2022-07-29T12:39:42;21.10;99.90
46608;DHT22;32330;51.936;7.184;2022-07-29T12:42:14;21.10;23.80
46608;DHT22;32330;51.936;7.184;2022-07-29T12:44:48;21.20;1.00
46608;DHT22;32330;51.936;7.184;2022-07-29T12:47:14;21.20;99.90
46608;DHT22;32330;51.936;7.184;2022-07-29T12:49:40;21.40;99.90
46608;DHT22;32330;51.936;7.184;2022-07-29T12:52:26;21.40;99.90
46608;DHT22;32330;51.936;7.184;2022-07-29T12:54:52;21.80;79.40
46608;DHT22;32330;51.936;7.184;2022-07-29T12:57:18;22.50;99.90
46608;DHT22;32330;51.936;7.184;2022-07-29T12:59:43;23.00;99.90
46608;DHT22;32330;51.936;7.184;2022-07-29T13:02:21;22.80;99.90
46608;DHT22;32330;51.936;7.184;2022-07-29T13:05:00;23.10;99.90
46608;DHT22;32330;51.936;7.184;2022-07-29T13:07:27;23.30;99.90
46608;DHT22;32330;51.936;7.184;2022-07-29T13:10:18;23.60;94.30
46608;DHT22;32330;51.936;7.184;2022-07-29T13:13:10;23.70;99.90
46608;DHT22;32330;51.936;7.184;2022-07-29T13:15:41;23.90;99.90
46608;DHT22;32330;51.936;7.184;2022-07-29T13:18:30;24.00;99.90
46608;DHT22;32330;51.936;7.184;2022-07-29T13:20:56;24.20;39.80
46608;DHT22;32330;51.936;7.184;2022-07-29T13:23:22;24.30;20.80
46608;DHT22;32330;51.936;7.184;2022-07-29T13:25:48;24.70;1.00
46608;DHT22;32330;51.936;7.184;2022-07-29T13:28:13;24.80;99.90
46608;DHT22;32330;51.936;7.184;2022-07-29T13:30:39;24.80;99.90
46608;DHT22;32330;51.936;7.184;2022-07-29T13:33:06;24.60;99.90
46608;DHT22;32330;51.936;7.184;2022-07-29T13:35:31;24.50;99.90
46608;DHT22;32330;51.936;7.184;2022-07-29T13:37:57;24.50;99.90
46608;DHT22;32330;51.936;7.184;2022-07-29T13:40:23;24.40;99.90
46608;DHT22;32330;51.936;7.184;2022-07-29T13:42:49;24.30;87.00
46608;DHT22;32330;51.936;7.184;2022-07-29T13:45:15;23.90;20.80
46608;DHT22;32330;51.936;7.184;2022-07-29T13:47:41;24.00;41.20
46608;DHT22;32330;51.936;7.184;2022-07-29T13:50:08;24.30;86.10
46608;DHT22;32330;51.936;7.184;2022-07-29T13:52:36;24.60;1.00
46608;DHT22;32330;51.936;7.184;2022-07-29T13:55:03;24.70;99.90
46608;DHT22;32330;51.936;7.184;2022-07-29T13:57:29;24.80;99.90
46608;DHT22;32330;51.936;7.184;2022-07-29T13:59:55;24.70;99.90
46608;DHT22;32330;51.936;7.184;2022-07-29T14:02:21;24.70;99.90
46608;DHT22;32330;51.936;7.184;2022-07-29T14:04:47;24.70;99.90
46608;DHT22;32330;51.936;7.184;2022-07-29T14:07:12;24.60;99.90
46608;DHT22;32330;51.936;7.184;2022-07-29T14:09:38;24.60;99.90
46608;DHT22;32330;51.936;7.184;2022-07-29T14:12:04;24.40;99.90
46608;DHT22;32330;51.936;7.184;2022-07-29T14:14:30;24.60;99.90
46608;DHT22;32330;51.936;7.184;2022-07-29T14:16:57;24.50;99.90
46608;DHT22;32330;51.936;7.184;2022-07-29T14:19:23;24.70;99.90
46608;DHT22;32330;51.936;7.184;2022-07-29T14:21:49;24.80;99.90
46608;DHT22;32330;51.936;7.184;2022-07-29T14:24:14;24.90;99.90
46608;DHT22;32330;51.936;7.184;2022-07-29T14:26:40;24.90;99.90
46608;DHT22;32330;51.936;7.184;2022-07-29T14:29:05;25.00;99.90
46608;DHT22;32330;51.936;7.184;2022-07-29T14:31:31;24.80;79.20
46608;DHT22;32330;51.936;7.184;2022-07-29T14:33:56;24.80;91.50
46608;DHT22;32330;51.936;7.184;2022-07-29T14:36:22;24.90;69.10
46608;DHT22;32330;51.936;7.184;2022-07-29T14:38:47;24.70;58.90
46608;DHT22;32330;51.936;7.184;2022-07-29T14:41:13;24.70;51.40
46608;DHT22;32330;51.936;7.184;2022-07-29T14:43:38;24.80;93.80
46608;DHT22;32330;51.936;7.184;2022-07-29T14:46:04;24.80;67.10
46608;DHT22;32330;51.936;7.184;2022-07-29T14:48:30;24.90;73.70
46608;DHT22;32330;51.936;7.184;2022-07-29T14:50:55;24.80;26.10
46608;DHT22;32330;51.936;7.184;2022-07-29T14:53:22;24.90;65.60
46608;DHT22;32330;51.936;7.184;2022-07-29T14:55:47;25.20;99.90
46608;DHT22;32330;51.936;7.184;2022-07-29T14:58:13;25.60;76.20
46608;DHT22;32330;51.936;7.184;2022-07-29T15:00:39;25.20;1.00
46608;DHT22;32330;51.936;7.184;2022-07-29T15:03:05;25.10;10.20
46608;DHT22;32330;51.936;7.184;2022-07-29T15:05:31;25.20;32.50
46608;DHT22;32330;51.936;7.184;2022-07-29T15:07:57;25.40;1.00
46608;DHT22;32330;51.936;7.184;2022-07-29T15:10:22;25.80;38.40
46608;DHT22;32330;51.936;7.184;2022-07-29T15:12:48;26.20;1.00
46608;DHT22;32330;51.936;7.184;2022-07-29T15:15:14;26.40;1.00
46608;DHT22;32330;51.936;7.184;2022-07-29T15:17:39;26.10;1.00
46608;DHT22;32330;51.936;7.184;2022-07-29T15:20:06;26.00;99.90
46608;DHT22;32330;51.936;7.184;2022-07-29T15:22:31;25.80;99.90
46608;DHT22;32330;51.936;7.184;2022-07-29T15:24:57;26.10;99.90
46608;DHT22;32330;51.936;7.184;2022-07-29T15:27:22;26.20;99.90
46608;DHT22;32330;51.936;7.184;2022-07-29T15:29:48;26.50;99.90
46608;DHT22;32330;51.936;7.184;2022-07-29T15:32:14;26.60;99.90
46608;DHT22;32330;51.936;7.184;2022-07-29T15:34:39;26.40;99.90
46608;DHT22;32330;51.936;7.184;2022-07-29T15:37:05;26.10;99.90
46608;DHT22;32330;51.936;7.184;2022-07-29T15:39:31;26.10;99.90
46608;DHT22;32330;51.936;7.184;2022-07-29T15:41:56;26.10;99.90
46608;DHT22;32330;51.936;7.184;2022-07-29T15:44:24;26.10;99.90
46608;DHT22;32330;51.936;7.184;2022-07-29T15:46:49;26.00;99.90
46608;DHT22;32330;51.936;7.184;2022-07-29T15:49:31;25.80;99.90
46608;DHT22;32330;51.936;7.184;2022-07-29T15:51:59;25.90;99.90
46608;DHT22;32330;51.936;7.184;2022-07-29T15:54:25;26.00;99.90
46608;DHT22;32330;51.936;7.184;2022-07-29T15:56:50;26.00;99.90
46608;DHT22;32330;51.936;7.184;2022-07-29T15:59:16;26.10;99.90
46608;DHT22;32330;51.936;7.184;2022-07-29T16:01:41;26.00;99.90
46608;DHT22;32330;51.936;7.184;2022-07-29T16:04:07;25.80;99.90
46608;DHT22;32330;51.936;7.184;2022-07-29T16:06:32;25.80;99.90
46608;DHT22;32330;51.936;7.184;2022-07-29T16:08:58;26.10;99.90
46608;DHT22;32330;51.936;7.184;2022-07-29T16:11:24;26.10;99.90
46608;DHT22;32330;51.936;7.184;2022-07-29T16:13:50;26.30;99.90
46608;DHT22;32330;51.936;7.184;2022-07-29T16:16:16;26.30;99.90
46608;DHT22;32330;51.936;7.184;2022-07-29T16:18:43;26.60;99.90
46608;DHT22;32330;51.936;7.184;2022-07-29T16:21:09;26.60;99.90
46608;DHT22;32330;51.936;7.184;2022-07-29T16:23:35;26.90;99.90
46608;DHT22;32330;51.936;7.184;2022-07-29T16:26:00;26.80;99.90
46608;DHT22;32330;51.936;7.184;2022-07-29T16:28:26;26.70;99.90
46608;DHT22;32330;51.936;7.184;2022-07-29T16:30:52;26.90;99.90
46608;DHT22;32330;51.936;7.184;2022-07-29T16:33:17;27.00;99.90
46608;DHT22;32330;51.936;7.184;2022-07-29T16:35:43;27.00;99.90